sensor_id;sensor_type;location;lat;lon;timestamp;P1;durP1;ratioP1;P2;durP2;ratioP2
3817;SDS011;1924;48.078;11.516;2022-08-05T00:01:57;34.80;;;0.80;;
3817;SDS011;1924;48.078;11.516;2022-08-05T00:04:24;35.03;;;0.80;;
3817;SDS011;1924;48.078;11.516;2022-08-05T00:06:51;34.83;;;0.80;;
3817;SDS011;1924;48.078;11.516;2022-08-05T00:09:18;34.93;;;0.80;;
3817;SDS011;1924;48.078;11.516;2022-08-05T00:11:45;34.97;;;0.80;;
3817;SDS011;1924;48.078;11.516;2022-08-05T00:14:12;34.63;;;0.80;;
3817;SDS011;1924;48.078;11.516;2022-08-05T00:16:41;34.83;;;0.80;;
3817;SDS011;1924;48.078;11.516;2022-08-05T00:19:08;34.90;;;0.80;;
3817;SDS011;1924;48.078;11.516;2022-08-05T00:21:35;34.97;;;0.80;;
3817;SDS011;1924;48.078;11.516;2022-08-05T00:24:02;34.57;;;0.80;;
3817;SDS011;1924;48.078;11.516;2022-08-05T00:26:29;34.73;;;0.80;;
3817;SDS011;1924;48.078;11.516;2022-08-05T00:28:56;34.80;;;0.80;;
3817;SDS011;1924;48.078;11.516;2022-08-05T00:31:29;34.83;;;0.80;;
3817;SDS011;1924;48.078;11.516;2022-08-05T00:33:57;34.80;;;0.80;;
3817;SDS011;1924;48.078;11.516;2022-08-05T00:36:24;34.80;;;0.80;;
3817;SDS011;1924;48.078;11.516;2022-08-05T00:38:51;34.67;;;0.80;;
3817;SDS011;1924;48.078;11.516;2022-08-05T00:41:25;34.67;;;0.80;;
3817;SDS011;1924;48.078;11.516;2022-08-05T00:43:56;34.87;;;0.80;;
3817;SDS011;1924;48.078;11.516;2022-08-05T00:46:23;34.73;;;0.80;;
3817;SDS011;1924;48.078;11.516;2022-08-05T00:48:50;34.37;;;0.80;;
3817;SDS011;1924;48.078;11.516;2022-08-05T00:51:19;34.63;;;0.80;;
3817;SDS011;1924;48.078;11.516;2022-08-05T00:53:48;34.47;;;0.80;;
3817;SDS011;1924;48.078;11.516;2022-08-05T00:56:15;34.57;;;0.80;;
3817;SDS011;1924;48.078;11.516;2022-08-05T00:58:42;34.43;;;0.80;;
3817;SDS011;1924;48.078;11.516;2022-08-05T01:01:10;34.57;;;0.80;;
3817;SDS011;1924;48.078;11.516;2022-08-05T01:03:39;34.70;;;0.80;;
3817;SDS011;1924;48.078;11.516;2022-08-05T01:06:07;34.30;;;0.80;;
3817;SDS011;1924;48.078;11.516;2022-08-05T01:08:35;34.23;;;0.80;;
3817;SDS011;1924;48.078;11.516;2022-08-05T01:11:03;34.50;;;0.80;;
3817;SDS011;1924;48.078;11.516;2022-08-05T01:13:36;34.37;;;0.80;;
3817;SDS011;1924;48.078;11.516;2022-08-05T01:16:13;34.53;;;0.80;;
3817;SDS011;1924;48.078;11.516;2022-08-05T01:18:49;34.47;;;0.80;;
3817;SDS011;1924;48.078;11.516;2022-08-05T01:21:28;34.33;;;0.80;;
3817;SDS011;1924;48.078;11.516;2022-08-05T01:24:25;34.17;;;0.80;;
3817;SDS011;1924;48.078;11.516;2022-08-05T01:27:17;34.60;;;0.80;;
3817;SDS011;1924;48.078;11.516;2022-08-05T01:30:02;34.33;;;0.80;;
3817;SDS011;1924;48.078;11.516;2022-08-05T01:32:30;34.70;;;0.80;;
3817;SDS011;1924;48.078;11.516;2022-08-05T01:35:01;34.70;;;0.80;;
3817;SDS011;1924;48.078;11.516;2022-08-05T01:37:34;34.60;;;0.80;;
3817;SDS011;1924;48.078;11.516;2022-08-05T01:40:08;34.53;;;0.80;;
3817;SDS011;1924;48.078;11.516;2022-08-05T01:42:37;34.50;;;0.80;;
3817;SDS011;1924;48.078;11.516;2022-08-05T01:45:09;34.40;;;0.80;;
3817;SDS011;1924;48.078;11.516;2022-08-05T01:47:39;34.40;;;0.80;;
3817;SDS011;1924;48.078;11.516;2022-08-05T01:50:09;34.50;;;0.80;;
3817;SDS011;1924;48.078;11.516;2022-08-05T01:52:39;34.60;;;0.80;;
3817;SDS011;1924;48.078;11.516;2022-08-05T01:55:08;34.53;;;0.80;;
3817;SDS011;1924;48.078;11.516;2022-08-05T01:57:39;34.37;;;0.80;;
3817;SDS011;1924;48.078;11.516;2022-08-05T02:00:10;34.37;;;0.80;;
3817;SDS011;1924;48.078;11.516;2022-08-05T02:02:39;34.23;;;0.80;;
3817;SDS011;1924;48.078;11.516;2022-08-05T02:05:10;34.70;;;0.80;;
3817;SDS011;1924;48.078;11.516;2022-08-05T02:07:38;34.27;;;0.80;;
3817;SDS011;1924;48.078;11.516;2022-08-05T02:10:07;34.50;;;0.80;;
3817;SDS011;1924;48.078;11.516;2022-08-05T02:12:37;34.50;;;0.80;;
3817;SDS011;1924;48.078;11.516;2022-08-05T02:15:14;34.27;;;0.80;;
3817;SDS011;1924;48.078;11.516;2022-08-05T02:17:52;34.17;;;0.80;;
3817;SDS011;1924;48.078;11.516;2022-08-05T02:20:24;34.37;;;0.80;;
3817;SDS011;1924;48.078;11.516;2022-08-05T02:22:56;34.07;;;0.80;;
3817;SDS011;1924;48.078;11.516;2022-08-05T02:25:27;34.40;;;0.80;;
3817;SDS011;1924;48.078;11.516;2022-08-05T02:27:56;34.50;;;0.80;;
3817;SDS011;1924;48.078;11.516;2022-08-05T02:30:34;34.40;;;0.80;;
3817;SDS011;1924;48.078;11.516;2022-08-05T02:33:15;34.30;;;0.80;;
3817;SDS011;1924;48.078;11.516;2022-08-05T02:35:56;34.20;;;0.80;;
3817;SDS011;1924;48.078;11.516;2022-08-05T02:38:26;34.50;;;0.80;;
3817;SDS011;1924;48.078;11.516;2022-08-05T02:41:18;34.33;;;0.80;;
3817;SDS011;1924;48.078;11.516;2022-08-05T02:44:00;34.23;;;0.80;;
3817;SDS011;1924;48.078;11.516;2022-08-05T02:49:27;34.47;;;0.80;;
3817;SDS011;1924;48.078;11.516;2022-08-05T02:51:56;34.20;;;0.80;;
3817;SDS011;1924;48.078;11.516;2022-08-05T02:54:24;34.37;;;0.80;;
3817;SDS011;1924;48.078;11.516;2022-08-05T02:56:53;34.23;;;0.80;;
3817;SDS011;1924;48.078;11.516;2022-08-05T02:59:21;34.30;;;0.80;;
3817;SDS011;1924;48.078;11.516;2022-08-05T03:01:56;34.43;;;0.80;;
3817;SDS011;1924;48.078;11.516;2022-08-05T03:04:24;34.40;;;0.80;;
3817;SDS011;1924;48.078;11.516;2022-08-05T03:06:52;34.13;;;0.80;;
3817;SDS011;1924;48.078;11.516;2022-08-05T03:09:20;34.37;;;0.80;;
3817;SDS011;1924;48.078;11.516;2022-08-05T03:11:47;34.27;;;0.80;;
3817;SDS011;1924;48.078;11.516;2022-08-05T03:14:15;34.30;;;0.80;;
3817;SDS011;1924;48.078;11.516;2022-08-05T03:16:51;34.30;;;0.80;;
3817;SDS011;1924;48.078;11.516;2022-08-05T03:19:19;34.27;;;0.80;;
3817;SDS011;1924;48.078;11.516;2022-08-05T03:21:47;34.40;;;0.80;;
3817;SDS011;1924;48.078;11.516;2022-08-05T03:24:14;34.10;;;0.80;;
3817;SDS011;1924;48.078;11.516;2022-08-05T03:26:44;34.37;;;0.80;;
3817;SDS011;1924;48.078;11.516;2022-08-05T03:29:11;34.47;;;0.80;;
3817;SDS011;1924;48.078;11.516;2022-08-05T03:31:38;34.27;;;0.80;;
3817;SDS011;1924;48.078;11.516;2022-08-05T03:34:07;34.10;;;0.80;;
3817;SDS011;1924;48.078;11.516;2022-08-05T03:36:34;34.17;;;0.80;;
3817;SDS011;1924;48.078;11.516;2022-08-05T03:39:05;34.27;;;0.80;;
3817;SDS011;1924;48.078;11.516;2022-08-05T03:41:32;34.20;;;0.80;;
3817;SDS011;1924;48.078;11.516;2022-08-05T03:43:59;34.17;;;0.80;;
3817;SDS011;1924;48.078;11.516;2022-08-05T03:46:26;34.03;;;0.80;;
3817;SDS011;1924;48.078;11.516;2022-08-05T03:48:59;34.20;;;0.80;;
3817;SDS011;1924;48.078;11.516;2022-08-05T03:51:39;34.27;;;0.80;;
3817;SDS011;1924;48.078;11.516;2022-08-05T03:54:12;34.27;;;0.80;;
3817;SDS011;1924;48.078;11.516;2022-08-05T03:56:44;34.37;;;0.80;;
3817;SDS011;1924;48.078;11.516;2022-08-05T03:59:12;33.93;;;0.80;;
3817;SDS011;1924;48.078;11.516;2022-08-05T04:01:43;34.07;;;0.80;;
3817;SDS011;1924;48.078;11.516;2022-08-05T04:04:12;34.30;;;0.80;;
3817;SDS011;1924;48.078;11.516;2022-08-05T04:06:43;34.03;;;0.80;;
3817;SDS011;1924;48.078;11.516;2022-08-05T04:09:12;34.17;;;0.80;;
3817;SDS011;1924;48.078;11.516;2022-08-05T04:11:40;33.97;;;0.80;;
3817;SDS011;1924;48.078;11.516;2022-08-05T04:14:08;34.30;;;0.80;;
3817;SDS011;1924;48.078;11.516;2022-08-05T04:16:37;33.87;;;0.80;;
3817;SDS011;1924;48.078;11.516;2022-08-05T04:19:04;34.03;;;0.80;;
3817;SDS011;1924;48.078;11.516;2022-08-05T04:21:31;34.03;;;0.80;;
3817;SDS011;1924;48.078;11.516;2022-08-05T04:23:59;34.17;;;0.80;;
3817;SDS011;1924;48.078;11.516;2022-08-05T04:26:28;34.17;;;0.80;;
3817;SDS011;1924;48.078;11.516;2022-08-05T04:28:56;34.07;;;0.80;;
3817;SDS011;1924;48.078;11.516;2022-08-05T04:31:23;34.07;;;0.80;;
3817;SDS011;1924;48.078;11.516;2022-08-05T04:33:50;34.13;;;0.80;;
3817;SDS011;1924;48.078;11.516;2022-08-05T04:36:17;34.10;;;0.80;;
3817;SDS011;1924;48.078;11.516;2022-08-05T04:38:44;34.20;;;0.80;;
3817;SDS011;1924;48.078;11.516;2022-08-05T04:41:12;34.30;;;0.80;;
3817;SDS011;1924;48.078;11.516;2022-08-05T04:43:39;34.20;;;0.80;;
3817;SDS011;1924;48.078;11.516;2022-08-05T04:46:06;34.07;;;0.80;;
3817;SDS011;1924;48.078;11.516;2022-08-05T04:48:33;34.17;;;0.80;;
3817;SDS011;1924;48.078;11.516;2022-08-05T04:53:59;34.17;;;0.80;;
3817;SDS011;1924;48.078;11.516;2022-08-05T04:56:30;34.20;;;0.80;;
3817;SDS011;1924;48.078;11.516;2022-08-05T04:58:57;34.17;;;0.80;;
3817;SDS011;1924;48.078;11.516;2022-08-05T05:01:24;34.20;;;0.80;;
3817;SDS011;1924;48.078;11.516;2022-08-05T05:04:03;34.13;;;0.80;;
3817;SDS011;1924;48.078;11.516;2022-08-05T05:06:33;34.13;;;0.80;;
3817;SDS011;1924;48.078;11.516;2022-08-05T05:08:59;34.20;;;0.80;;
3817;SDS011;1924;48.078;11.516;2022-08-05T05:11:26;34.20;;;0.80;;
3817;SDS011;1924;48.078;11.516;2022-08-05T05:13:54;34.17;;;0.80;;
3817;SDS011;1924;48.078;11.516;2022-08-05T05:16:21;33.97;;;0.80;;
3817;SDS011;1924;48.078;11.516;2022-08-05T05:18:48;34.03;;;0.80;;
3817;SDS011;1924;48.078;11.516;2022-08-05T05:21:14;33.90;;;0.80;;
3817;SDS011;1924;48.078;11.516;2022-08-05T05:23:41;34.23;;;0.80;;
3817;SDS011;1924;48.078;11.516;2022-08-05T05:26:08;34.10;;;0.80;;
3817;SDS011;1924;48.078;11.516;2022-08-05T05:28:35;34.00;;;0.80;;
3817;SDS011;1924;48.078;11.516;2022-08-05T05:31:05;33.93;;;0.80;;
3817;SDS011;1924;48.078;11.516;2022-08-05T05:33:32;33.97;;;0.80;;
3817;SDS011;1924;48.078;11.516;2022-08-05T05:35:58;33.93;;;0.80;;
3817;SDS011;1924;48.078;11.516;2022-08-05T05:38:34;34.00;;;0.80;;
3817;SDS011;1924;48.078;11.516;2022-08-05T05:41:01;34.00;;;0.80;;
3817;SDS011;1924;48.078;11.516;2022-08-05T05:43:28;33.87;;;0.80;;
3817;SDS011;1924;48.078;11.516;2022-08-05T05:45:55;34.03;;;0.80;;
3817;SDS011;1924;48.078;11.516;2022-08-05T05:48:23;34.07;;;0.80;;
3817;SDS011;1924;48.078;11.516;2022-08-05T05:50:50;34.00;;;0.80;;
3817;SDS011;1924;48.078;11.516;2022-08-05T05:53:17;34.20;;;0.80;;
3817;SDS011;1924;48.078;11.516;2022-08-05T05:55:44;33.77;;;0.80;;
3817;SDS011;1924;48.078;11.516;2022-08-05T05:58:11;34.07;;;0.80;;
3817;SDS011;1924;48.078;11.516;2022-08-05T06:00:39;34.10;;;0.80;;
3817;SDS011;1924;48.078;11.516;2022-08-05T06:03:15;34.00;;;0.80;;
3817;SDS011;1924;48.078;11.516;2022-08-05T06:05:43;34.30;;;0.80;;
3817;SDS011;1924;48.078;11.516;2022-08-05T06:08:10;34.10;;;0.80;;
3817;SDS011;1924;48.078;11.516;2022-08-05T06:10:37;34.00;;;0.80;;
3817;SDS011;1924;48.078;11.516;2022-08-05T06:13:04;33.83;;;0.80;;
3817;SDS011;1924;48.078;11.516;2022-08-05T06:15:31;33.80;;;0.80;;
3817;SDS011;1924;48.078;11.516;2022-08-05T06:17:58;33.87;;;0.80;;
3817;SDS011;1924;48.078;11.516;2022-08-05T06:20:25;33.80;;;0.80;;
3817;SDS011;1924;48.078;11.516;2022-08-05T06:22:53;33.80;;;0.80;;
3817;SDS011;1924;48.078;11.516;2022-08-05T06:25:21;33.77;;;0.80;;
3817;SDS011;1924;48.078;11.516;2022-08-05T06:27:51;34.00;;;0.80;;
3817;SDS011;1924;48.078;11.516;2022-08-05T06:30:18;33.57;;;0.80;;
3817;SDS011;1924;48.078;11.516;2022-08-05T06:32:45;34.00;;;0.80;;
3817;SDS011;1924;48.078;11.516;2022-08-05T06:35:12;33.77;;;0.80;;
3817;SDS011;1924;48.078;11.516;2022-08-05T06:37:39;33.77;;;0.80;;
3817;SDS011;1924;48.078;11.516;2022-08-05T06:40:08;34.10;;;0.80;;
3817;SDS011;1924;48.078;11.516;2022-08-05T06:42:35;34.00;;;0.80;;
3817;SDS011;1924;48.078;11.516;2022-08-05T06:45:03;34.10;;;0.80;;
3817;SDS011;1924;48.078;11.516;2022-08-05T06:47:30;33.97;;;0.80;;
3817;SDS011;1924;48.078;11.516;2022-08-05T06:49:57;33.90;;;0.80;;
3817;SDS011;1924;48.078;11.516;2022-08-05T06:52:23;33.87;;;0.80;;
3817;SDS011;1924;48.078;11.516;2022-08-05T06:54:50;33.87;;;0.80;;
3817;SDS011;1924;48.078;11.516;2022-08-05T06:57:21;33.90;;;0.80;;
3817;SDS011;1924;48.078;11.516;2022-08-05T06:59:49;34.07;;;0.80;;
3817;SDS011;1924;48.078;11.516;2022-08-05T07:02:17;34.10;;;0.80;;
3817;SDS011;1924;48.078;11.516;2022-08-05T07:04:44;34.10;;;0.80;;
3817;SDS011;1924;48.078;11.516;2022-08-05T07:07:11;33.77;;;0.80;;
3817;SDS011;1924;48.078;11.516;2022-08-05T07:09:38;34.03;;;0.80;;
3817;SDS011;1924;48.078;11.516;2022-08-05T07:12:05;34.07;;;0.80;;
3817;SDS011;1924;48.078;11.516;2022-08-05T07:14:33;34.20;;;0.80;;
3817;SDS011;1924;48.078;11.516;2022-08-05T07:17:18;34.10;;;0.80;;
3817;SDS011;1924;48.078;11.516;2022-08-05T07:19:45;34.07;;;0.80;;
3817;SDS011;1924;48.078;11.516;2022-08-05T07:22:12;34.00;;;0.80;;
3817;SDS011;1924;48.078;11.516;2022-08-05T07:24:58;34.10;;;0.80;;
3817;SDS011;1924;48.078;11.516;2022-08-05T07:27:35;34.13;;;0.80;;
3817;SDS011;1924;48.078;11.516;2022-08-05T07:30:04;34.07;;;0.80;;
3817;SDS011;1924;48.078;11.516;2022-08-05T07:32:33;34.07;;;0.80;;
3817;SDS011;1924;48.078;11.516;2022-08-05T07:35:05;34.03;;;0.80;;
3817;SDS011;1924;48.078;11.516;2022-08-05T07:37:33;34.03;;;0.80;;
3817;SDS011;1924;48.078;11.516;2022-08-05T07:40:00;34.03;;;0.80;;
3817;SDS011;1924;48.078;11.516;2022-08-05T07:42:27;33.83;;;0.80;;
3817;SDS011;1924;48.078;11.516;2022-08-05T07:45:00;33.77;;;0.80;;
3817;SDS011;1924;48.078;11.516;2022-08-05T07:47:28;34.00;;;0.80;;
3817;SDS011;1924;48.078;11.516;2022-08-05T07:49:55;34.17;;;0.80;;
3817;SDS011;1924;48.078;11.516;2022-08-05T07:52:22;33.87;;;0.80;;
3817;SDS011;1924;48.078;11.516;2022-08-05T07:54:49;34.00;;;0.80;;
3817;SDS011;1924;48.078;11.516;2022-08-05T07:57:16;34.07;;;0.80;;
3817;SDS011;1924;48.078;11.516;2022-08-05T07:59:42;34.03;;;0.80;;
3817;SDS011;1924;48.078;11.516;2022-08-05T08:02:10;34.17;;;0.80;;
3817;SDS011;1924;48.078;11.516;2022-08-05T08:04:38;33.90;;;0.80;;
3817;SDS011;1924;48.078;11.516;2022-08-05T08:07:05;33.97;;;0.80;;
3817;SDS011;1924;48.078;11.516;2022-08-05T08:09:32;34.00;;;0.80;;
3817;SDS011;1924;48.078;11.516;2022-08-05T08:11:58;34.00;;;0.80;;
3817;SDS011;1924;48.078;11.516;2022-08-05T08:14:25;33.90;;;0.80;;
3817;SDS011;1924;48.078;11.516;2022-08-05T08:16:52;33.93;;;0.80;;
3817;SDS011;1924;48.078;11.516;2022-08-05T08:19:19;33.70;;;0.80;;
3817;SDS011;1924;48.078;11.516;2022-08-05T08:21:47;33.67;;;0.80;;
3817;SDS011;1924;48.078;11.516;2022-08-05T08:24:14;33.73;;;0.77;;
3817;SDS011;1924;48.078;11.516;2022-08-05T08:26:40;33.87;;;0.80;;
3817;SDS011;1924;48.078;11.516;2022-08-05T08:29:07;33.90;;;0.80;;
3817;SDS011;1924;48.078;11.516;2022-08-05T08:31:37;33.80;;;0.80;;
3817;SDS011;1924;48.078;11.516;2022-08-05T08:34:05;33.70;;;0.80;;
3817;SDS011;1924;48.078;11.516;2022-08-05T08:36:32;33.67;;;0.80;;
3817;SDS011;1924;48.078;11.516;2022-08-05T08:39:00;33.70;;;0.80;;
3817;SDS011;1924;48.078;11.516;2022-08-05T08:41:27;33.47;;;0.80;;
3817;SDS011;1924;48.078;11.516;2022-08-05T08:44:02;33.63;;;0.80;;
3817;SDS011;1924;48.078;11.516;2022-08-05T08:46:43;33.53;;;0.80;;
3817;SDS011;1924;48.078;11.516;2022-08-05T08:49:13;33.67;;;0.80;;
3817;SDS011;1924;48.078;11.516;2022-08-05T08:51:41;33.37;;;0.80;;
3817;SDS011;1924;48.078;11.516;2022-08-05T08:54:13;33.60;;;0.80;;
3817;SDS011;1924;48.078;11.516;2022-08-05T08:56:41;33.53;;;0.80;;
3817;SDS011;1924;48.078;11.516;2022-08-05T08:59:08;34.10;;;0.80;;
3817;SDS011;1924;48.078;11.516;2022-08-05T09:01:43;33.33;;;0.80;;
3817;SDS011;1924;48.078;11.516;2022-08-05T09:04:15;33.60;;;0.80;;
3817;SDS011;1924;48.078;11.516;2022-08-05T09:06:56;33.80;;;0.80;;
3817;SDS011;1924;48.078;11.516;2022-08-05T09:09:24;33.53;;;0.80;;
3817;SDS011;1924;48.078;11.516;2022-08-05T09:11:51;33.70;;;0.80;;
3817;SDS011;1924;48.078;11.516;2022-08-05T09:14:32;33.77;;;0.80;;
3817;SDS011;1924;48.078;11.516;2022-08-05T09:17:06;33.70;;;0.80;;
3817;SDS011;1924;48.078;11.516;2022-08-05T09:19:38;33.63;;;0.80;;
3817;SDS011;1924;48.078;11.516;2022-08-05T09:22:05;33.53;;;0.80;;
3817;SDS011;1924;48.078;11.516;2022-08-05T09:24:35;33.60;;;0.80;;
3817;SDS011;1924;48.078;11.516;2022-08-05T09:27:04;33.67;;;0.80;;
3817;SDS011;1924;48.078;11.516;2022-08-05T09:29:38;33.37;;;0.80;;
3817;SDS011;1924;48.078;11.516;2022-08-05T09:32:13;33.73;;;0.80;;
3817;SDS011;1924;48.078;11.516;2022-08-05T09:34:49;33.63;;;0.80;;
3817;SDS011;1924;48.078;11.516;2022-08-05T09:37:19;33.57;;;0.80;;
3817;SDS011;1924;48.078;11.516;2022-08-05T09:39:49;33.57;;;0.80;;
3817;SDS011;1924;48.078;11.516;2022-08-05T09:42:16;33.70;;;0.80;;
3817;SDS011;1924;48.078;11.516;2022-08-05T09:44:52;33.67;;;0.80;;
3817;SDS011;1924;48.078;11.516;2022-08-05T09:47:32;33.47;;;0.80;;
3817;SDS011;1924;48.078;11.516;2022-08-05T09:50:01;33.80;;;0.80;;
3817;SDS011;1924;48.078;11.516;2022-08-05T09:52:29;33.60;;;0.80;;
3817;SDS011;1924;48.078;11.516;2022-08-05T09:54:58;33.77;;;0.80;;
3817;SDS011;1924;48.078;11.516;2022-08-05T09:57:30;33.50;;;0.80;;
3817;SDS011;1924;48.078;11.516;2022-08-05T09:59:59;33.67;;;0.80;;
3817;SDS011;1924;48.078;11.516;2022-08-05T10:02:31;33.73;;;0.80;;
3817;SDS011;1924;48.078;11.516;2022-08-05T10:05:03;33.70;;;0.80;;
3817;SDS011;1924;48.078;11.516;2022-08-05T10:07:45;33.70;;;0.80;;
3817;SDS011;1924;48.078;11.516;2022-08-05T10:10:20;33.77;;;0.80;;
3817;SDS011;1924;48.078;11.516;2022-08-05T10:12:49;34.10;;;0.80;;
3817;SDS011;1924;48.078;11.516;2022-08-05T10:15:18;33.53;;;0.80;;
3817;SDS011;1924;48.078;11.516;2022-08-05T10:20:34;33.80;;;0.80;;
3817;SDS011;1924;48.078;11.516;2022-08-05T10:23:03;33.77;;;0.80;;
3817;SDS011;1924;48.078;11.516;2022-08-05T10:25:31;33.70;;;0.80;;
3817;SDS011;1924;48.078;11.516;2022-08-05T10:27:58;33.63;;;0.80;;
3817;SDS011;1924;48.078;11.516;2022-08-05T10:30:26;33.57;;;0.80;;
3817;SDS011;1924;48.078;11.516;2022-08-05T10:32:54;33.67;;;0.80;;
3817;SDS011;1924;48.078;11.516;2022-08-05T10:35:23;33.60;;;0.80;;
3817;SDS011;1924;48.078;11.516;2022-08-05T10:37:50;33.53;;;0.80;;
3817;SDS011;1924;48.078;11.516;2022-08-05T10:40:18;33.57;;;0.80;;
3817;SDS011;1924;48.078;11.516;2022-08-05T10:42:52;33.63;;;0.80;;
3817;SDS011;1924;48.078;11.516;2022-08-05T10:45:25;33.53;;;0.80;;
3817;SDS011;1924;48.078;11.516;2022-08-05T10:47:53;33.80;;;0.80;;
3817;SDS011;1924;48.078;11.516;2022-08-05T10:50:20;33.80;;;0.80;;
3817;SDS011;1924;48.078;11.516;2022-08-05T10:52:47;33.63;;;0.80;;
3817;SDS011;1924;48.078;11.516;2022-08-05T10:55:21;33.63;;;0.80;;
3817;SDS011;1924;48.078;11.516;2022-08-05T10:57:48;33.57;;;0.80;;
3817;SDS011;1924;48.078;11.516;2022-08-05T11:00:34;33.47;;;0.80;;
3817;SDS011;1924;48.078;11.516;2022-08-05T11:03:08;33.60;;;0.80;;
3817;SDS011;1924;48.078;11.516;2022-08-05T11:05:36;33.70;;;0.80;;
3817;SDS011;1924;48.078;11.516;2022-08-05T11:08:04;33.77;;;0.80;;
3817;SDS011;1924;48.078;11.516;2022-08-05T11:10:33;33.80;;;0.80;;
3817;SDS011;1924;48.078;11.516;2022-08-05T11:13:01;33.80;;;0.80;;
3817;SDS011;1924;48.078;11.516;2022-08-05T11:15:32;33.77;;;0.80;;
3817;SDS011;1924;48.078;11.516;2022-08-05T11:18:07;33.87;;;0.80;;
3817;SDS011;1924;48.078;11.516;2022-08-05T11:20:48;33.70;;;0.77;;
3817;SDS011;1924;48.078;11.516;2022-08-05T11:23:26;33.70;;;0.80;;
3817;SDS011;1924;48.078;11.516;2022-08-05T11:26:04;33.73;;;0.80;;
3817;SDS011;1924;48.078;11.516;2022-08-05T11:28:39;33.80;;;0.80;;
3817;SDS011;1924;48.078;11.516;2022-08-05T11:31:22;33.67;;;0.80;;
3817;SDS011;1924;48.078;11.516;2022-08-05T11:33:55;33.93;;;0.80;;
3817;SDS011;1924;48.078;11.516;2022-08-05T11:36:40;33.97;;;0.80;;
3817;SDS011;1924;48.078;11.516;2022-08-05T11:39:12;34.07;;;0.80;;
3817;SDS011;1924;48.078;11.516;2022-08-05T11:41:40;34.17;;;0.80;;
3817;SDS011;1924;48.078;11.516;2022-08-05T11:44:14;34.30;;;0.80;;
3817;SDS011;1924;48.078;11.516;2022-08-05T11:46:46;34.23;;;0.80;;
3817;SDS011;1924;48.078;11.516;2022-08-05T11:49:15;34.30;;;0.80;;
3817;SDS011;1924;48.078;11.516;2022-08-05T11:51:44;34.33;;;0.80;;
3817;SDS011;1924;48.078;11.516;2022-08-05T11:54:12;34.40;;;0.80;;
3817;SDS011;1924;48.078;11.516;2022-08-05T11:56:46;34.30;;;0.80;;
3817;SDS011;1924;48.078;11.516;2022-08-05T11:59:14;34.10;;;0.80;;
3817;SDS011;1924;48.078;11.516;2022-08-05T12:01:58;34.33;;;0.80;;
3817;SDS011;1924;48.078;11.516;2022-08-05T12:04:26;34.03;;;0.80;;
3817;SDS011;1924;48.078;11.516;2022-08-05T12:06:54;34.07;;;0.80;;
3817;SDS011;1924;48.078;11.516;2022-08-05T12:09:25;34.07;;;0.80;;
3817;SDS011;1924;48.078;11.516;2022-08-05T12:11:54;33.83;;;0.80;;
3817;SDS011;1924;48.078;11.516;2022-08-05T12:14:21;33.97;;;0.80;;
3817;SDS011;1924;48.078;11.516;2022-08-05T12:16:48;34.00;;;0.80;;
3817;SDS011;1924;48.078;11.516;2022-08-05T12:19:16;33.97;;;0.80;;
3817;SDS011;1924;48.078;11.516;2022-08-05T12:21:46;34.07;;;0.80;;
3817;SDS011;1924;48.078;11.516;2022-08-05T12:24:15;34.10;;;0.80;;
3817;SDS011;1924;48.078;11.516;2022-08-05T12:26:44;34.23;;;0.80;;
3817;SDS011;1924;48.078;11.516;2022-08-05T12:29:14;34.10;;;0.80;;
3817;SDS011;1924;48.078;11.516;2022-08-05T12:31:44;34.30;;;0.80;;
3817;SDS011;1924;48.078;11.516;2022-08-05T12:34:12;34.17;;;0.80;;
3817;SDS011;1924;48.078;11.516;2022-08-05T12:36:41;34.10;;;0.80;;
3817;SDS011;1924;48.078;11.516;2022-08-05T12:39:09;34.17;;;0.80;;
3817;SDS011;1924;48.078;11.516;2022-08-05T12:41:37;34.23;;;0.80;;
3817;SDS011;1924;48.078;11.516;2022-08-05T12:44:07;34.10;;;0.80;;
3817;SDS011;1924;48.078;11.516;2022-08-05T12:46:35;34.13;;;0.80;;
3817;SDS011;1924;48.078;11.516;2022-08-05T12:49:04;34.13;;;0.80;;
3817;SDS011;1924;48.078;11.516;2022-08-05T12:51:43;34.00;;;0.80;;
3817;SDS011;1924;48.078;11.516;2022-08-05T12:54:16;34.10;;;0.80;;
3817;SDS011;1924;48.078;11.516;2022-08-05T12:56:46;34.00;;;0.80;;
3817;SDS011;1924;48.078;11.516;2022-08-05T12:59:15;34.00;;;0.80;;
3817;SDS011;1924;48.078;11.516;2022-08-05T13:01:43;33.73;;;0.80;;
3817;SDS011;1924;48.078;11.516;2022-08-05T13:04:17;33.97;;;0.80;;
3817;SDS011;1924;48.078;11.516;2022-08-05T13:06:45;34.00;;;0.80;;
3817;SDS011;1924;48.078;11.516;2022-08-05T13:09:13;33.87;;;0.80;;
3817;SDS011;1924;48.078;11.516;2022-08-05T13:11:41;34.00;;;0.80;;
3817;SDS011;1924;48.078;11.516;2022-08-05T13:14:09;33.97;;;0.80;;
3817;SDS011;1924;48.078;11.516;2022-08-05T13:16:43;33.80;;;0.80;;
3817;SDS011;1924;48.078;11.516;2022-08-05T13:19:12;33.80;;;0.80;;
3817;SDS011;1924;48.078;11.516;2022-08-05T13:21:39;33.90;;;0.80;;
3817;SDS011;1924;48.078;11.516;2022-08-05T13:24:07;33.77;;;0.80;;
3817;SDS011;1924;48.078;11.516;2022-08-05T13:26:34;33.80;;;0.80;;
3817;SDS011;1924;48.078;11.516;2022-08-05T13:29:01;33.77;;;0.80;;
3817;SDS011;1924;48.078;11.516;2022-08-05T13:31:28;33.87;;;0.80;;
3817;SDS011;1924;48.078;11.516;2022-08-05T13:33:55;33.77;;;0.80;;
3817;SDS011;1924;48.078;11.516;2022-08-05T13:36:22;34.00;;;0.87;;
3817;SDS011;1924;48.078;11.516;2022-08-05T13:38:49;33.67;;;0.80;;
3817;SDS011;1924;48.078;11.516;2022-08-05T13:41:17;33.83;;;0.80;;
3817;SDS011;1924;48.078;11.516;2022-08-05T13:43:43;34.10;;;0.80;;
3817;SDS011;1924;48.078;11.516;2022-08-05T13:46:10;33.93;;;0.80;;
3817;SDS011;1924;48.078;11.516;2022-08-05T13:48:37;34.03;;;0.80;;
3817;SDS011;1924;48.078;11.516;2022-08-05T13:51:04;34.00;;;0.80;;
3817;SDS011;1924;48.078;11.516;2022-08-05T13:53:32;34.00;;;0.80;;
3817;SDS011;1924;48.078;11.516;2022-08-05T13:55:59;34.03;;;0.80;;
3817;SDS011;1924;48.078;11.516;2022-08-05T13:58:27;34.27;;;0.80;;
3817;SDS011;1924;48.078;11.516;2022-08-05T14:00:54;34.23;;;0.80;;
3817;SDS011;1924;48.078;11.516;2022-08-05T14:03:21;34.27;;;0.80;;
3817;SDS011;1924;48.078;11.516;2022-08-05T14:05:48;34.07;;;0.80;;
3817;SDS011;1924;48.078;11.516;2022-08-05T14:08:15;34.13;;;0.80;;
3817;SDS011;1924;48.078;11.516;2022-08-05T14:10:41;34.07;;;0.80;;
3817;SDS011;1924;48.078;11.516;2022-08-05T14:13:08;34.17;;;0.80;;
3817;SDS011;1924;48.078;11.516;2022-08-05T14:15:36;34.03;;;0.80;;
3817;SDS011;1924;48.078;11.516;2022-08-05T14:18:04;34.17;;;0.80;;
3817;SDS011;1924;48.078;11.516;2022-08-05T14:20:31;34.03;;;0.80;;
3817;SDS011;1924;48.078;11.516;2022-08-05T14:22:58;34.10;;;0.80;;
3817;SDS011;1924;48.078;11.516;2022-08-05T14:25:25;33.87;;;0.80;;
3817;SDS011;1924;48.078;11.516;2022-08-05T14:27:52;33.97;;;0.80;;
3817;SDS011;1924;48.078;11.516;2022-08-05T14:30:19;33.97;;;0.80;;
3817;SDS011;1924;48.078;11.516;2022-08-05T14:32:47;33.93;;;0.80;;
3817;SDS011;1924;48.078;11.516;2022-08-05T14:35:14;34.00;;;0.80;;
3817;SDS011;1924;48.078;11.516;2022-08-05T14:37:41;34.00;;;0.80;;
3817;SDS011;1924;48.078;11.516;2022-08-05T14:40:08;33.90;;;0.80;;
3817;SDS011;1924;48.078;11.516;2022-08-05T14:42:35;34.00;;;0.80;;
3817;SDS011;1924;48.078;11.516;2022-08-05T14:45:05;34.07;;;0.80;;
3817;SDS011;1924;48.078;11.516;2022-08-05T14:47:33;33.97;;;0.80;;
3817;SDS011;1924;48.078;11.516;2022-08-05T14:50:01;33.87;;;0.80;;
3817;SDS011;1924;48.078;11.516;2022-08-05T14:52:28;34.00;;;0.80;;
3817;SDS011;1924;48.078;11.516;2022-08-05T14:54:55;33.97;;;0.80;;
3817;SDS011;1924;48.078;11.516;2022-08-05T14:57:22;34.00;;;0.80;;
3817;SDS011;1924;48.078;11.516;2022-08-05T14:59:48;33.90;;;0.80;;
3817;SDS011;1924;48.078;11.516;2022-08-05T15:02:15;34.00;;;0.80;;
3817;SDS011;1924;48.078;11.516;2022-08-05T15:04:42;33.97;;;0.80;;
3817;SDS011;1924;48.078;11.516;2022-08-05T15:07:10;33.97;;;0.80;;
3817;SDS011;1924;48.078;11.516;2022-08-05T15:09:37;34.00;;;0.80;;
3817;SDS011;1924;48.078;11.516;2022-08-05T15:12:04;34.07;;;0.80;;